Pagrindinis puslapis
METAR-TAF:

METAR-TAF

Oro uostai :

Satu Marė, Rumunija

platuma: 47-48N, ilguma: 022-53E, Aukštis: 123 m

Dabartinis oras

Ataskaita buvo paskelbta 20 minutes, ne 16:30 UTC
Vėjas 3 kt iš Rytų/Šiaurės Rytų
Temperatūra 15°C
Drėgmė 63%
Slėgis 1015 hPa
Matomumas 10 km arba daugiau
nėra debesų žemiau 1500 m ir nėra kamuolinių lietaus debesų

METAR: LRSM 271630Z 06003KT CAVOK 15/08 Q1015

Laikas: 18:50 (16:50 UTC)

Prognozė

Ataskaita buvo paskelbta 2 valandos ir 50 minutes, ne 14:00 UTC
Prognozė galioja nuo 27 metu 15 UTC su 28 metu 00 UTC
Vėjas 6 kt iš Rytų
Matomumas 10 km arba daugiau
nėra debesų žemiau 1500 m ir nėra kamuolinių lietaus debesų

TAF: LRSM 271400Z 2715/2800 10006KT CAVOK

Orai ataskaitas ir orų prognozės (METAR, TAF).

turimą stotys yra geltonos ir raudonos taškus žemėlapyje.

Perkelti pele per norėdami pamatyti stoties vardą.

Tada spustelėkite, norėdami matyti oro stebėjimo ir prognozės.

Norėdami pakeisti žemėlapį: spustelėkite ant žalios mygtukų su juodo kryžiaus žemyn,; žalią mygtuką su brūkšneliu, jei norite nutolinti; arba žalių rodyklių gretimoms žemėlapius.


METAR-TAF: